Ovapa, West Virginia
Current Conditions -  °F | °C
As of 5:54 PM on Monday 20 Oct 2014 (Local Time) from KCRW Reporting Station
Broken Clouds Broken Clouds  
Wind Chill: 59°   Ceiling: 9000
Heat Index: 59°   Visibility: 10mi
Dew Point: 47°   Wind: 6mph
Humidity: 64%   Direction: 190°S
Pressure: 29.92"   Gusts: NA
Location:  38.53°N, 81.15°W
Report Text: KCRW 202154Z 19005KT 10SM BKN090 BKN150 15/08 A2992 RMK AO2 SLP134 T01500083
Loading
Personal Weather Stations






























Interactive Weather Map
Tropical Storm Tracking
New forecast layout! Learn more

10-Day Weather Forecast

Advertisements
Track Severe Weather on mobile